sensor_id;sensor_type;location;lat;lon;timestamp;pressure;altitude;pressure_sealevel;temperature;humidity
4085;BME280;2057;50.858;6.572;2022-11-20T00:00:26;99968.41;;;4.29;100.00
4085;BME280;2057;50.858;6.572;2022-11-20T00:02:51;99967.94;;;4.34;100.00
4085;BME280;2057;50.858;6.572;2022-11-20T00:05:16;99966.47;;;4.38;100.00
4085;BME280;2057;50.858;6.572;2022-11-20T00:07:43;99968.31;;;4.40;100.00
4085;BME280;2057;50.858;6.572;2022-11-20T00:10:08;99967.16;;;4.35;100.00
4085;BME280;2057;50.858;6.572;2022-11-20T00:12:34;99975.56;;;4.36;100.00
4085;BME280;2057;50.858;6.572;2022-11-20T00:14:59;99959.41;;;4.32;100.00
4085;BME280;2057;50.858;6.572;2022-11-20T00:17:25;99956.13;;;4.33;100.00
4085;BME280;2057;50.858;6.572;2022-11-20T00:19:51;99966.28;;;4.35;100.00
4085;BME280;2057;50.858;6.572;2022-11-20T00:22:16;99974.09;;;4.26;100.00
4085;BME280;2057;50.858;6.572;2022-11-20T00:24:41;99971.97;;;4.32;100.00
4085;BME280;2057;50.858;6.572;2022-11-20T00:27:08;99973.94;;;4.36;100.00
4085;BME280;2057;50.858;6.572;2022-11-20T00:29:34;99983.97;;;4.36;100.00
4085;BME280;2057;50.858;6.572;2022-11-20T00:31:59;99985.59;;;4.36;100.00
4085;BME280;2057;50.858;6.572;2022-11-20T00:34:24;99982.91;;;4.33;100.00
4085;BME280;2057;50.858;6.572;2022-11-20T00:36:50;99977.75;;;4.18;100.00
4085;BME280;2057;50.858;6.572;2022-11-20T00:39:15;99983.69;;;4.32;100.00
4085;BME280;2057;50.858;6.572;2022-11-20T00:41:40;99972.94;;;4.34;100.00
4085;BME280;2057;50.858;6.572;2022-11-20T00:44:06;99968.47;;;4.30;100.00
4085;BME280;2057;50.858;6.572;2022-11-20T00:46:33;99962.59;;;4.30;100.00
4085;BME280;2057;50.858;6.572;2022-11-20T00:48:59;99963.66;;;4.33;100.00
4085;BME280;2057;50.858;6.572;2022-11-20T00:51:26;99964.66;;;4.35;100.00
4085;BME280;2057;50.858;6.572;2022-11-20T00:53:51;99976.09;;;4.18;100.00
4085;BME280;2057;50.858;6.572;2022-11-20T00:56:18;99964.97;;;4.15;100.00
4085;BME280;2057;50.858;6.572;2022-11-20T00:58:45;99955.28;;;4.07;100.00
4085;BME280;2057;50.858;6.572;2022-11-20T01:01:17;99956.81;;;4.05;100.00
4085;BME280;2057;50.858;6.572;2022-11-20T01:03:50;99960.53;;;4.11;100.00
4085;BME280;2057;50.858;6.572;2022-11-20T01:06:21;99960.03;;;4.16;100.00
4085;BME280;2057;50.858;6.572;2022-11-20T01:08:48;99955.13;;;4.18;100.00
4085;BME280;2057;50.858;6.572;2022-11-20T01:11:17;99957.81;;;4.21;100.00
4085;BME280;2057;50.858;6.572;2022-11-20T01:13:43;99952.63;;;4.18;100.00
4085;BME280;2057;50.858;6.572;2022-11-20T01:16:11;99945.19;;;4.19;100.00
4085;BME280;2057;50.858;6.572;2022-11-20T01:18:39;99937.94;;;4.24;100.00
4085;BME280;2057;50.858;6.572;2022-11-20T01:21:07;99933.44;;;4.32;100.00
4085;BME280;2057;50.858;6.572;2022-11-20T01:23:38;99935.13;;;4.19;100.00
4085;BME280;2057;50.858;6.572;2022-11-20T01:26:06;99940.63;;;4.14;100.00
4085;BME280;2057;50.858;6.572;2022-11-20T01:28:32;99940.22;;;4.07;100.00
4085;BME280;2057;50.858;6.572;2022-11-20T01:30:58;99954.34;;;3.80;100.00
4085;BME280;2057;50.858;6.572;2022-11-20T01:33:26;99946.63;;;3.90;100.00
4085;BME280;2057;50.858;6.572;2022-11-20T01:35:52;99951.19;;;3.96;100.00
4085;BME280;2057;50.858;6.572;2022-11-20T01:38:18;99945.41;;;3.97;100.00
4085;BME280;2057;50.858;6.572;2022-11-20T01:40:46;99955.06;;;4.30;100.00
4085;BME280;2057;50.858;6.572;2022-11-20T01:43:19;99943.72;;;4.23;100.00
4085;BME280;2057;50.858;6.572;2022-11-20T01:49:02;99945.63;;;4.14;100.00
4085;BME280;2057;50.858;6.572;2022-11-20T01:51:37;99940.13;;;4.06;100.00
4085;BME280;2057;50.858;6.572;2022-11-20T01:54:08;99933.38;;;4.05;100.00
4085;BME280;2057;50.858;6.572;2022-11-20T01:56:40;99936.13;;;3.96;100.00
4085;BME280;2057;50.858;6.572;2022-11-20T01:59:08;99934.28;;;3.93;100.00
4085;BME280;2057;50.858;6.572;2022-11-20T02:01:35;99929.94;;;3.91;100.00
4085;BME280;2057;50.858;6.572;2022-11-20T02:04:01;99931.53;;;4.02;100.00
4085;BME280;2057;50.858;6.572;2022-11-20T02:06:30;99928.41;;;3.93;100.00
4085;BME280;2057;50.858;6.572;2022-11-20T02:08:57;99934.56;;;3.85;100.00
4085;BME280;2057;50.858;6.572;2022-11-20T02:11:23;99929.31;;;3.82;100.00
4085;BME280;2057;50.858;6.572;2022-11-20T02:13:49;99926.25;;;3.86;100.00
4085;BME280;2057;50.858;6.572;2022-11-20T02:16:22;99926.81;;;3.82;100.00
4085;BME280;2057;50.858;6.572;2022-11-20T02:18:49;99923.38;;;3.93;100.00
4085;BME280;2057;50.858;6.572;2022-11-20T02:26:21;99914.88;;;3.91;100.00
4085;BME280;2057;50.858;6.572;2022-11-20T02:28:48;99919.38;;;3.83;100.00
4085;BME280;2057;50.858;6.572;2022-11-20T02:31:13;99925.69;;;3.90;100.00
4085;BME280;2057;50.858;6.572;2022-11-20T02:33:39;99929.03;;;3.90;100.00
4085;BME280;2057;50.858;6.572;2022-11-20T02:36:04;99930.09;;;3.81;100.00
4085;BME280;2057;50.858;6.572;2022-11-20T02:38:31;99934.50;;;3.71;100.00
4085;BME280;2057;50.858;6.572;2022-11-20T02:40:56;99935.78;;;3.41;100.00
4085;BME280;2057;50.858;6.572;2022-11-20T02:43:22;99937.31;;;3.39;100.00
4085;BME280;2057;50.858;6.572;2022-11-20T02:45:48;99930.41;;;3.48;100.00
4085;BME280;2057;50.858;6.572;2022-11-20T02:48:13;99926.56;;;3.65;100.00
4085;BME280;2057;50.858;6.572;2022-11-20T02:50:39;99931.78;;;3.68;100.00
4085;BME280;2057;50.858;6.572;2022-11-20T02:53:05;99928.34;;;3.54;100.00
4085;BME280;2057;50.858;6.572;2022-11-20T02:55:30;99930.94;;;3.56;100.00
4085;BME280;2057;50.858;6.572;2022-11-20T02:57:58;99923.38;;;3.42;100.00
4085;BME280;2057;50.858;6.572;2022-11-20T03:00:23;99919.25;;;3.31;100.00
4085;BME280;2057;50.858;6.572;2022-11-20T03:02:49;99926.50;;;3.40;100.00
4085;BME280;2057;50.858;6.572;2022-11-20T03:05:14;99922.50;;;3.30;100.00
4085;BME280;2057;50.858;6.572;2022-11-20T03:07:43;99925.66;;;3.39;100.00
4085;BME280;2057;50.858;6.572;2022-11-20T03:10:10;99932.31;;;3.27;100.00
4085;BME280;2057;50.858;6.572;2022-11-20T03:12:35;99924.72;;;3.25;100.00
4085;BME280;2057;50.858;6.572;2022-11-20T03:15:00;99917.06;;;3.36;100.00
4085;BME280;2057;50.858;6.572;2022-11-20T03:17:26;99911.09;;;3.47;100.00
4085;BME280;2057;50.858;6.572;2022-11-20T03:19:51;99906.00;;;3.45;100.00
4085;BME280;2057;50.858;6.572;2022-11-20T03:22:17;99908.38;;;3.56;100.00
4085;BME280;2057;50.858;6.572;2022-11-20T03:24:42;99906.06;;;3.59;100.00
4085;BME280;2057;50.858;6.572;2022-11-20T03:27:07;99894.06;;;3.55;100.00
4085;BME280;2057;50.858;6.572;2022-11-20T03:29:34;99895.31;;;3.73;100.00
4085;BME280;2057;50.858;6.572;2022-11-20T03:32:00;99891.56;;;3.55;100.00
4085;BME280;2057;50.858;6.572;2022-11-20T03:34:25;99883.13;;;3.66;100.00
4085;BME280;2057;50.858;6.572;2022-11-20T03:36:50;99885.47;;;3.76;100.00
4085;BME280;2057;50.858;6.572;2022-11-20T03:39:16;99888.84;;;3.77;100.00
4085;BME280;2057;50.858;6.572;2022-11-20T03:41:41;99892.88;;;3.75;100.00
4085;BME280;2057;50.858;6.572;2022-11-20T03:44:09;99886.03;;;3.72;100.00
4085;BME280;2057;50.858;6.572;2022-11-20T03:46:34;99882.53;;;3.70;100.00
4085;BME280;2057;50.858;6.572;2022-11-20T03:49:00;99886.53;;;3.80;100.00
4085;BME280;2057;50.858;6.572;2022-11-20T03:51:28;99887.63;;;3.84;100.00
4085;BME280;2057;50.858;6.572;2022-11-20T03:53:56;99886.34;;;3.77;100.00
4085;BME280;2057;50.858;6.572;2022-11-20T03:56:24;99887.63;;;3.84;100.00
4085;BME280;2057;50.858;6.572;2022-11-20T03:58:50;99883.81;;;3.77;100.00
4085;BME280;2057;50.858;6.572;2022-11-20T04:01:19;99889.00;;;3.67;100.00
4085;BME280;2057;50.858;6.572;2022-11-20T04:03:45;99889.50;;;3.49;100.00
4085;BME280;2057;50.858;6.572;2022-11-20T04:06:16;99884.09;;;3.68;100.00
4085;BME280;2057;50.858;6.572;2022-11-20T04:08:42;99877.66;;;3.60;100.00
4085;BME280;2057;50.858;6.572;2022-11-20T04:11:15;99887.13;;;3.51;100.00
4085;BME280;2057;50.858;6.572;2022-11-20T04:13:42;99885.47;;;3.51;100.00
4085;BME280;2057;50.858;6.572;2022-11-20T04:16:08;99881.94;;;3.86;100.00
4085;BME280;2057;50.858;6.572;2022-11-20T04:18:34;99876.00;;;3.72;100.00
4085;BME280;2057;50.858;6.572;2022-11-20T04:21:00;99875.97;;;3.47;100.00
4085;BME280;2057;50.858;6.572;2022-11-20T04:23:26;99881.16;;;3.62;100.00
4085;BME280;2057;50.858;6.572;2022-11-20T04:25:54;99875.00;;;3.70;100.00
4085;BME280;2057;50.858;6.572;2022-11-20T04:28:20;99881.63;;;3.56;100.00
4085;BME280;2057;50.858;6.572;2022-11-20T04:30:46;99875.59;;;3.66;100.00
4085;BME280;2057;50.858;6.572;2022-11-20T04:33:11;99874.88;;;3.55;100.00
4085;BME280;2057;50.858;6.572;2022-11-20T04:35:39;99886.63;;;3.56;100.00
4085;BME280;2057;50.858;6.572;2022-11-20T04:38:04;99894.44;;;3.48;100.00
4085;BME280;2057;50.858;6.572;2022-11-20T04:40:30;99886.06;;;3.35;100.00
4085;BME280;2057;50.858;6.572;2022-11-20T04:42:56;99883.41;;;3.45;100.00
4085;BME280;2057;50.858;6.572;2022-11-20T04:45:22;99893.31;;;3.56;100.00
4085;BME280;2057;50.858;6.572;2022-11-20T04:47:48;99890.75;;;3.42;100.00
4085;BME280;2057;50.858;6.572;2022-11-20T04:50:13;99888.16;;;3.29;100.00
4085;BME280;2057;50.858;6.572;2022-11-20T04:52:39;99887.56;;;3.45;100.00
4085;BME280;2057;50.858;6.572;2022-11-20T04:55:04;99894.78;;;3.40;100.00
4085;BME280;2057;50.858;6.572;2022-11-20T04:57:30;99892.53;;;3.57;100.00
4085;BME280;2057;50.858;6.572;2022-11-20T04:59:55;99886.41;;;3.65;100.00
4085;BME280;2057;50.858;6.572;2022-11-20T05:02:21;99882.91;;;3.63;100.00
4085;BME280;2057;50.858;6.572;2022-11-20T05:04:46;99879.47;;;3.74;100.00
4085;BME280;2057;50.858;6.572;2022-11-20T05:07:11;99887.16;;;3.64;100.00
4085;BME280;2057;50.858;6.572;2022-11-20T05:09:37;99887.53;;;3.57;100.00
4085;BME280;2057;50.858;6.572;2022-11-20T05:12:02;99892.41;;;3.67;100.00
4085;BME280;2057;50.858;6.572;2022-11-20T05:14:27;99882.00;;;3.74;100.00
4085;BME280;2057;50.858;6.572;2022-11-20T05:16:53;99891.50;;;3.67;100.00
4085;BME280;2057;50.858;6.572;2022-11-20T05:19:18;99895.44;;;3.63;100.00
4085;BME280;2057;50.858;6.572;2022-11-20T05:21:43;99894.00;;;3.67;100.00
4085;BME280;2057;50.858;6.572;2022-11-20T05:24:09;99890.69;;;3.54;100.00
4085;BME280;2057;50.858;6.572;2022-11-20T05:26:34;99891.00;;;3.59;100.00
4085;BME280;2057;50.858;6.572;2022-11-20T05:28:59;99884.38;;;3.73;100.00
4085;BME280;2057;50.858;6.572;2022-11-20T05:31:26;99887.69;;;3.72;100.00
4085;BME280;2057;50.858;6.572;2022-11-20T05:33:51;99886.03;;;3.72;100.00
4085;BME280;2057;50.858;6.572;2022-11-20T05:36:17;99885.09;;;3.84;100.00
4085;BME280;2057;50.858;6.572;2022-11-20T05:38:43;99882.00;;;3.88;100.00
4085;BME280;2057;50.858;6.572;2022-11-20T05:41:11;99875.16;;;3.85;100.00
4085;BME280;2057;50.858;6.572;2022-11-20T05:43:38;99887.63;;;3.58;100.00
4085;BME280;2057;50.858;6.572;2022-11-20T05:46:05;99883.41;;;3.45;100.00
4085;BME280;2057;50.858;6.572;2022-11-20T05:48:32;99883.31;;;3.69;100.00
4085;BME280;2057;50.858;6.572;2022-11-20T05:50:58;99882.28;;;3.79;100.00
4085;BME280;2057;50.858;6.572;2022-11-20T05:53:24;99877.28;;;3.79;100.00
4085;BME280;2057;50.858;6.572;2022-11-20T05:56:06;99876.28;;;3.77;100.00
4085;BME280;2057;50.858;6.572;2022-11-20T05:58:32;99874.75;;;3.79;100.00
4085;BME280;2057;50.858;6.572;2022-11-20T06:01:17;99865.69;;;3.81;100.00
4085;BME280;2057;50.858;6.572;2022-11-20T06:03:43;99872.28;;;3.92;100.00
4085;BME280;2057;50.858;6.572;2022-11-20T06:06:11;99868.25;;;3.69;100.00
4085;BME280;2057;50.858;6.572;2022-11-20T06:08:37;99871.28;;;3.77;100.00
4085;BME280;2057;50.858;6.572;2022-11-20T06:11:06;99871.56;;;3.68;100.00
4085;BME280;2057;50.858;6.572;2022-11-20T06:13:32;99872.25;;;3.79;100.00
4085;BME280;2057;50.858;6.572;2022-11-20T06:15:58;99877.56;;;3.84;100.00
4085;BME280;2057;50.858;6.572;2022-11-20T06:18:23;99875.66;;;3.93;100.00
4085;BME280;2057;50.858;6.572;2022-11-20T06:20:59;99875.16;;;3.85;100.00
4085;BME280;2057;50.858;6.572;2022-11-20T06:23:24;99885.25;;;3.73;100.00
4085;BME280;2057;50.858;6.572;2022-11-20T06:25:49;99885.09;;;3.84;100.00
4085;BME280;2057;50.858;6.572;2022-11-20T06:28:15;99883.47;;;3.84;100.00
4085;BME280;2057;50.858;6.572;2022-11-20T06:30:44;99883.28;;;3.81;100.00
4085;BME280;2057;50.858;6.572;2022-11-20T06:33:12;99890.28;;;3.73;100.00
4085;BME280;2057;50.858;6.572;2022-11-20T06:35:38;99890.59;;;3.78;100.00
4085;BME280;2057;50.858;6.572;2022-11-20T06:38:03;99888.84;;;3.77;100.00
4085;BME280;2057;50.858;6.572;2022-11-20T06:40:28;99893.19;;;3.80;100.00
4085;BME280;2057;50.858;6.572;2022-11-20T06:42:54;99898.53;;;3.84;100.00
4085;BME280;2057;50.858;6.572;2022-11-20T06:45:20;99907.94;;;3.75;100.00
4085;BME280;2057;50.858;6.572;2022-11-20T06:47:45;99900.25;;;3.85;100.00
4085;BME280;2057;50.858;6.572;2022-11-20T06:50:11;99905.59;;;3.65;100.00
4085;BME280;2057;50.858;6.572;2022-11-20T06:52:36;99910.75;;;3.80;100.00
4085;BME280;2057;50.858;6.572;2022-11-20T06:55:02;99915.94;;;3.69;100.00
4085;BME280;2057;50.858;6.572;2022-11-20T06:57:27;99916.56;;;3.53;100.00
4085;BME280;2057;50.858;6.572;2022-11-20T06:59:52;99916.66;;;3.55;100.00
4085;BME280;2057;50.858;6.572;2022-11-20T07:02:20;99923.28;;;3.29;100.00
4085;BME280;2057;50.858;6.572;2022-11-20T07:04:45;99910.69;;;3.41;100.00
4085;BME280;2057;50.858;6.572;2022-11-20T07:07:11;99919.63;;;3.49;100.00
4085;BME280;2057;50.858;6.572;2022-11-20T07:09:36;99924.84;;;3.52;100.00
4085;BME280;2057;50.858;6.572;2022-11-20T07:12:01;99921.25;;;3.49;100.00
4085;BME280;2057;50.858;6.572;2022-11-20T07:14:26;99913.34;;;3.42;100.00
4085;BME280;2057;50.858;6.572;2022-11-20T07:16:54;99920.38;;;3.48;100.00
4085;BME280;2057;50.858;6.572;2022-11-20T07:19:20;99931.19;;;3.47;100.00
4085;BME280;2057;50.858;6.572;2022-11-20T07:21:45;99927.59;;;3.55;100.00
4085;BME280;2057;50.858;6.572;2022-11-20T07:24:10;99923.56;;;3.45;100.00
4085;BME280;2057;50.858;6.572;2022-11-20T07:26:38;99932.50;;;3.42;100.00
4085;BME280;2057;50.858;6.572;2022-11-20T07:29:04;99927.50;;;3.42;100.00
4085;BME280;2057;50.858;6.572;2022-11-20T07:31:29;99921.13;;;3.59;100.00
4085;BME280;2057;50.858;6.572;2022-11-20T07:33:54;99923.19;;;3.53;100.00
4085;BME280;2057;50.858;6.572;2022-11-20T07:36:20;99919.38;;;3.58;100.00
4085;BME280;2057;50.858;6.572;2022-11-20T07:38:45;99914.31;;;3.70;100.00
4085;BME280;2057;50.858;6.572;2022-11-20T07:41:10;99916.66;;;3.55;100.00
4085;BME280;2057;50.858;6.572;2022-11-20T07:43:35;99920.47;;;3.61;100.00
4085;BME280;2057;50.858;6.572;2022-11-20T07:46:01;99917.81;;;3.72;100.00
4085;BME280;2057;50.858;6.572;2022-11-20T07:48:26;99913.25;;;3.66;100.00
4085;BME280;2057;50.858;6.572;2022-11-20T07:50:58;99916.25;;;3.74;100.00
4085;BME280;2057;50.858;6.572;2022-11-20T07:53:24;99910.88;;;3.81;100.00
4085;BME280;2057;50.858;6.572;2022-11-20T07:55:49;99901.84;;;3.71;100.00
4085;BME280;2057;50.858;6.572;2022-11-20T07:58:18;99906.72;;;3.82;100.00
4085;BME280;2057;50.858;6.572;2022-11-20T08:00:44;99911.44;;;3.77;100.00
4085;BME280;2057;50.858;6.572;2022-11-20T08:03:09;99908.78;;;3.87;100.00
4085;BME280;2057;50.858;6.572;2022-11-20T08:05:34;99908.06;;;3.76;100.00
4085;BME280;2057;50.858;6.572;2022-11-20T08:07:59;99906.56;;;3.92;100.00
4085;BME280;2057;50.858;6.572;2022-11-20T08:10:25;99898.44;;;3.96;100.00
4085;BME280;2057;50.858;6.572;2022-11-20T08:12:52;99893.84;;;4.02;100.00
4085;BME280;2057;50.858;6.572;2022-11-20T08:15:39;99897.34;;;4.18;100.00
4085;BME280;2057;50.858;6.572;2022-11-20T08:18:07;99895.69;;;4.18;100.00
4085;BME280;2057;50.858;6.572;2022-11-20T08:20:34;99895.78;;;4.06;100.00
4085;BME280;2057;50.858;6.572;2022-11-20T08:23:04;99901.88;;;4.10;100.00
4085;BME280;2057;50.858;6.572;2022-11-20T08:25:32;99904.97;;;4.06;100.00
4085;BME280;2057;50.858;6.572;2022-11-20T08:28:03;99909.56;;;4.00;100.00
4085;BME280;2057;50.858;6.572;2022-11-20T08:30:30;99909.63;;;3.88;100.00
4085;BME280;2057;50.858;6.572;2022-11-20T08:33:01;99922.34;;;3.77;100.00
4085;BME280;2057;50.858;6.572;2022-11-20T08:35:26;99918.13;;;3.76;100.00
4085;BME280;2057;50.858;6.572;2022-11-20T08:37:52;99907.72;;;3.84;100.00
4085;BME280;2057;50.858;6.572;2022-11-20T08:40:17;99910.53;;;3.88;100.00
4085;BME280;2057;50.858;6.572;2022-11-20T08:42:49;99911.00;;;3.96;100.00
4085;BME280;2057;50.858;6.572;2022-11-20T08:45:16;99906.28;;;4.01;100.00
4085;BME280;2057;50.858;6.572;2022-11-20T08:47:42;99911.44;;;4.02;100.00
4085;BME280;2057;50.858;6.572;2022-11-20T08:50:11;99904.69;;;4.15;100.00
4085;BME280;2057;50.858;6.572;2022-11-20T08:52:37;99907.00;;;4.12;100.00
4085;BME280;2057;50.858;6.572;2022-11-20T08:55:04;99906.72;;;4.20;100.00
4085;BME280;2057;50.858;6.572;2022-11-20T08:57:33;99903.75;;;4.26;100.00
4085;BME280;2057;50.858;6.572;2022-11-20T08:59:59;99905.97;;;4.35;100.00
4085;BME280;2057;50.858;6.572;2022-11-20T09:02:25;99903.75;;;4.26;100.00
4085;BME280;2057;50.858;6.572;2022-11-20T09:04:50;99901.78;;;4.22;100.00
4085;BME280;2057;50.858;6.572;2022-11-20T09:07:15;99904.34;;;4.35;100.00
4085;BME280;2057;50.858;6.572;2022-11-20T09:09:41;99889.09;;;4.46;100.00
4085;BME280;2057;50.858;6.572;2022-11-20T09:12:06;99890.34;;;4.66;100.00
4085;BME280;2057;50.858;6.572;2022-11-20T09:14:34;99898.91;;;4.96;100.00
4085;BME280;2057;50.858;6.572;2022-11-20T09:16:59;99899.41;;;4.77;100.00
4085;BME280;2057;50.858;6.572;2022-11-20T09:19:27;99898.63;;;4.78;100.00
4085;BME280;2057;50.858;6.572;2022-11-20T09:21:52;99897.97;;;4.67;100.00
4085;BME280;2057;50.858;6.572;2022-11-20T09:24:18;99893.31;;;4.60;100.00
4085;BME280;2057;50.858;6.572;2022-11-20T09:26:45;99893.13;;;4.44;100.00
4085;BME280;2057;50.858;6.572;2022-11-20T09:29:10;99892.94;;;4.40;100.00
4085;BME280;2057;50.858;6.572;2022-11-20T09:31:36;99893.50;;;4.50;100.00
4085;BME280;2057;50.858;6.572;2022-11-20T09:34:02;99889.25;;;4.49;100.00
4085;BME280;2057;50.858;6.572;2022-11-20T09:36:27;99880.69;;;4.59;100.00
4085;BME280;2057;50.858;6.572;2022-11-20T09:38:52;99884.81;;;4.58;100.00
4085;BME280;2057;50.858;6.572;2022-11-20T09:46:57;99883.84;;;4.56;100.00
4085;BME280;2057;50.858;6.572;2022-11-20T09:54:39;99878.81;;;4.43;100.00
4085;BME280;2057;50.858;6.572;2022-11-20T09:57:11;99881.13;;;4.66;100.00
4085;BME280;2057;50.858;6.572;2022-11-20T09:59:42;99875.53;;;4.70;100.00
4085;BME280;2057;50.858;6.572;2022-11-20T10:18:52;99856.00;;;4.66;100.00
4085;BME280;2057;50.858;6.572;2022-11-20T10:29:38;99835.59;;;4.75;100.00
4085;BME280;2057;50.858;6.572;2022-11-20T10:32:14;99827.84;;;4.72;100.00
4085;BME280;2057;50.858;6.572;2022-11-20T10:35:00;99831.25;;;4.59;100.00
4085;BME280;2057;50.858;6.572;2022-11-20T10:37:28;99827.94;;;4.87;100.00
4085;BME280;2057;50.858;6.572;2022-11-20T10:40:01;99823.88;;;4.76;100.00
4085;BME280;2057;50.858;6.572;2022-11-20T10:42:45;99819.97;;;4.94;100.00
4085;BME280;2057;50.858;6.572;2022-11-20T10:47:49;99814.38;;;4.98;100.00
4085;BME280;2057;50.858;6.572;2022-11-20T10:50:19;99820.75;;;4.93;100.00
4085;BME280;2057;50.858;6.572;2022-11-20T10:53:05;99817.03;;;5.01;100.00
4085;BME280;2057;50.858;6.572;2022-11-20T11:00:41;99798.72;;;4.89;100.00
4085;BME280;2057;50.858;6.572;2022-11-20T11:03:20;99790.22;;;4.87;100.00
4085;BME280;2057;50.858;6.572;2022-11-20T11:06:17;99783.50;;;5.01;100.00
4085;BME280;2057;50.858;6.572;2022-11-20T11:08:47;99781.56;;;4.97;100.00
4085;BME280;2057;50.858;6.572;2022-11-20T11:11:26;99777.97;;;5.07;100.00
4085;BME280;2057;50.858;6.572;2022-11-20T11:13:52;99776.22;;;5.06;100.00
4085;BME280;2057;50.858;6.572;2022-11-20T11:16:27;99774.00;;;4.97;100.00
4085;BME280;2057;50.858;6.572;2022-11-20T11:19:06;99766.16;;;5.06;100.00
4085;BME280;2057;50.858;6.572;2022-11-20T11:21:32;99762.69;;;5.03;100.00
4085;BME280;2057;50.858;6.572;2022-11-20T11:24:03;99749.13;;;5.01;100.00
4085;BME280;2057;50.858;6.572;2022-11-20T11:26:29;99751.41;;;5.12;100.00
4085;BME280;2057;50.858;6.572;2022-11-20T11:31:28;99741.13;;;5.22;100.00
4085;BME280;2057;50.858;6.572;2022-11-20T11:34:07;99739.81;;;5.14;100.00
4085;BME280;2057;50.858;6.572;2022-11-20T11:36:34;99737.72;;;5.07;100.00
4085;BME280;2057;50.858;6.572;2022-11-20T11:39:00;99730.81;;;5.04;100.00
4085;BME280;2057;50.858;6.572;2022-11-20T11:41:30;99727.81;;;5.10;100.00
4085;BME280;2057;50.858;6.572;2022-11-20T11:44:01;99719.69;;;5.14;100.00
4085;BME280;2057;50.858;6.572;2022-11-20T11:46:53;99716.81;;;5.23;100.00
4085;BME280;2057;50.858;6.572;2022-11-20T11:49:20;99714.03;;;5.33;100.00
4085;BME280;2057;50.858;6.572;2022-11-20T11:52:10;99706.06;;;5.40;100.00
4085;BME280;2057;50.858;6.572;2022-11-20T12:00:10;99690.88;;;5.54;100.00
4085;BME280;2057;50.858;6.572;2022-11-20T12:05:26;99691.28;;;5.46;100.00
4085;BME280;2057;50.858;6.572;2022-11-20T12:10:33;99688.38;;;5.54;100.00
4085;BME280;2057;50.858;6.572;2022-11-20T12:13:20;99687.31;;;5.50;100.00
4085;BME280;2057;50.858;6.572;2022-11-20T12:15:49;99689.28;;;5.56;100.00
4085;BME280;2057;50.858;6.572;2022-11-20T12:18:17;99684.44;;;5.59;100.00
4085;BME280;2057;50.858;6.572;2022-11-20T12:26:05;99676.28;;;5.63;100.00
4085;BME280;2057;50.858;6.572;2022-11-20T12:28:50;99668.63;;;5.61;100.00
4085;BME280;2057;50.858;6.572;2022-11-20T12:31:41;99665.00;;;5.71;100.00
4085;BME280;2057;50.858;6.572;2022-11-20T12:34:27;99660.47;;;5.65;100.00
4085;BME280;2057;50.858;6.572;2022-11-20T12:39:35;99649.00;;;5.71;100.00
4085;BME280;2057;50.858;6.572;2022-11-20T12:58:53;99623.34;;;5.78;100.00
4085;BME280;2057;50.858;6.572;2022-11-20T13:01:32;99618.78;;;5.71;100.00
4085;BME280;2057;50.858;6.572;2022-11-20T13:04:23;99606.69;;;5.80;100.00
4085;BME280;2057;50.858;6.572;2022-11-20T13:06:58;99603.94;;;5.92;100.00
4085;BME280;2057;50.858;6.572;2022-11-20T13:09:24;99597.34;;;5.94;100.00
4085;BME280;2057;50.858;6.572;2022-11-20T13:14:41;99590.00;;;5.82;100.00
4085;BME280;2057;50.858;6.572;2022-11-20T13:19:33;99577.91;;;5.91;100.00
4085;BME280;2057;50.858;6.572;2022-11-20T13:21:59;99577.25;;;5.95;100.00
4085;BME280;2057;50.858;6.572;2022-11-20T13:24:27;99569.88;;;5.99;100.00
4085;BME280;2057;50.858;6.572;2022-11-20T13:29:29;99572.50;;;6.00;100.00
4085;BME280;2057;50.858;6.572;2022-11-20T13:34:31;99564.00;;;5.98;100.00
4085;BME280;2057;50.858;6.572;2022-11-20T13:36:57;99557.00;;;6.09;100.00
4085;BME280;2057;50.858;6.572;2022-11-20T13:39:37;99554.50;;;6.09;100.00
4085;BME280;2057;50.858;6.572;2022-11-20T13:44:38;99541.97;;;6.27;100.00
4085;BME280;2057;50.858;6.572;2022-11-20T13:47:20;99533.69;;;6.13;100.00
4085;BME280;2057;50.858;6.572;2022-11-20T13:49:45;99537.31;;;6.18;100.00
4085;BME280;2057;50.858;6.572;2022-11-20T14:00:22;99527.16;;;6.17;100.00
4085;BME280;2057;50.858;6.572;2022-11-20T14:05:34;99515.81;;;6.08;100.00
4085;BME280;2057;50.858;6.572;2022-11-20T14:08:03;99513.41;;;6.10;100.00
4085;BME280;2057;50.858;6.572;2022-11-20T14:10:29;99514.66;;;6.18;100.00
4085;BME280;2057;50.858;6.572;2022-11-20T14:12:55;99508.50;;;6.13;100.00
4085;BME280;2057;50.858;6.572;2022-11-20T14:15:38;99495.59;;;6.07;100.00
4085;BME280;2057;50.858;6.572;2022-11-20T14:18:20;99493.38;;;6.13;100.00
4085;BME280;2057;50.858;6.572;2022-11-20T14:20:47;99483.94;;;6.09;100.00
4085;BME280;2057;50.858;6.572;2022-11-20T14:23:22;99488.50;;;6.00;100.00
4085;BME280;2057;50.858;6.572;2022-11-20T14:25:50;99477.66;;;6.01;100.00
4085;BME280;2057;50.858;6.572;2022-11-20T14:28:41;99479.53;;;6.05;100.00
4085;BME280;2057;50.858;6.572;2022-11-20T14:31:18;99474.34;;;6.02;100.00
4085;BME280;2057;50.858;6.572;2022-11-20T14:33:46;99471.19;;;6.06;100.00
4085;BME280;2057;50.858;6.572;2022-11-20T14:36:17;99470.16;;;6.02;100.00
4085;BME280;2057;50.858;6.572;2022-11-20T14:38:46;99472.03;;;6.23;100.00
4085;BME280;2057;50.858;6.572;2022-11-20T14:41:30;99462.66;;;6.04;100.00
4085;BME280;2057;50.858;6.572;2022-11-20T14:43:58;99465.84;;;6.00;100.00
4085;BME280;2057;50.858;6.572;2022-11-20T14:46:25;99462.47;;;6.34;100.00
4085;BME280;2057;50.858;6.572;2022-11-20T14:48:54;99467.63;;;6.19;100.00
4085;BME280;2057;50.858;6.572;2022-11-20T14:51:38;99454.50;;;6.08;100.00
4085;BME280;2057;50.858;6.572;2022-11-20T14:56:41;99444.56;;;6.11;100.00
4085;BME280;2057;50.858;6.572;2022-11-20T14:59:08;99441.16;;;5.94;100.00
4085;BME280;2057;50.858;6.572;2022-11-20T15:01:34;99430.31;;;5.95;100.00
4085;BME280;2057;50.858;6.572;2022-11-20T15:04:08;99431.75;;;6.06;100.00
4085;BME280;2057;50.858;6.572;2022-11-20T15:06:34;99429.06;;;6.03;100.00
4085;BME280;2057;50.858;6.572;2022-11-20T15:09:02;99424.25;;;6.08;100.00
4085;BME280;2057;50.858;6.572;2022-11-20T15:11:32;99427.41;;;6.04;100.00
4085;BME280;2057;50.858;6.572;2022-11-20T15:14:02;99407.69;;;6.13;100.00
4085;BME280;2057;50.858;6.572;2022-11-20T15:16:28;99403.88;;;6.03;100.00
4085;BME280;2057;50.858;6.572;2022-11-20T15:18:53;99401.34;;;6.03;100.00
4085;BME280;2057;50.858;6.572;2022-11-20T15:21:20;99392.59;;;6.13;100.00
4085;BME280;2057;50.858;6.572;2022-11-20T15:23:48;99390.78;;;6.10;100.00